Time;durP1;ratioP1;P1;durP2;ratioP2;P2;SDS_P1;SDS_P2;PMS_P1;PMS_P2;Temp;Humidity;BMP_temperature;BMP_pressure;BME280_temperature;BME280_humidity;BME280_pressure;Samples;Min_cycle;Max_cycle;Signal;HPM_P1;HPM_P2
2024/03/20 04:15:30;;;;;;;5.35;2.25;;;17.30;99.90;;;;;;10550053;27;20725;-54
2024/03/20 04:20:32;;;;;;;4.63;2.80;;;17.40;99.90;;;;;;10539447;28;20859;-55
2024/03/20 04:25:34;;;;;;;8.88;3.75;;;17.30;99.90;;;;;;10545901;28;20056;-55
2024/03/20 04:30:38;;;;;;;5.15;2.58;;;17.20;99.90;;;;;;10550095;28;21468;-55
2024/03/20 04:35:40;;;;;;;5.22;2.33;;;17.20;99.90;;;;;;10548958;28;20079;-54
2024/03/20 04:40:42;;;;;;;7.50;2.75;;;17.10;99.90;;;;;;10551856;28;20430;-56
2024/03/20 04:45:46;;;;;;;7.32;3.25;;;17.10;99.90;;;;;;10544268;28;20052;-57
2024/03/20 04:50:49;;;;;;;14.13;5.10;;;17.10;99.90;;;;;;10547418;28;20103;-56
2024/03/20 04:55:52;;;;;;;5.30;2.10;;;17.10;99.90;;;;;;10539775;28;20109;-56
2024/03/20 05:00:55;;;;;;;6.68;3.22;;;17.10;99.90;;;;;;10546084;28;20039;-56
2024/03/20 05:05:58;;;;;;;5.85;2.22;;;17.10;99.90;;;;;;10540866;28;20078;-53
2024/03/20 05:11:00;;;;;;;8.23;3.25;;;17.00;99.90;;;;;;10545766;28;20213;-54
2024/03/20 05:16:08;;;;;;;7.50;2.28;;;17.10;99.90;;;;;;10544793;28;20055;-55
2024/03/20 05:21:10;;;;;;;10.48;4.80;;;17.10;99.90;;;;;;10542058;28;20056;-55
2024/03/20 05:26:12;;;;;;;7.65;2.60;;;17.20;99.90;;;;;;10523919;28;20147;-54
2024/03/20 05:31:27;;;;;;;8.57;2.80;;;17.30;99.90;;;;;;10515230;28;20495;-54
2024/03/20 05:36:29;;;;;;;2.35;1.45;;;17.40;99.90;;;;;;10514881;28;20465;-55
2024/03/20 05:41:31;;;;;;;5.55;2.22;;;17.50;99.90;;;;;;10515116;28;20545;-55
2024/03/20 05:46:34;;;;;;;8.13;3.20;;;17.50;99.90;;;;;;10510815;28;20048;-55
2024/03/20 05:51:36;;;;;;;5.68;2.08;;;17.40;99.90;;;;;;10512036;28;20533;-56
2024/03/20 05:56:38;;;;;;;8.43;3.40;;;17.50;99.90;;;;;;10506834;28;20060;-55
2024/03/20 06:01:42;;;;;;;10.98;3.63;;;17.40;99.90;;;;;;10505000;28;20487;-57
2024/03/20 13:14:40;;;;;;;20.13;9.52;;;21.40;99.90;;;;;;10454662;27;21379;-50
2024/03/20 13:19:42;;;;;;;20.75;9.43;;;21.20;99.90;;;;;;10452543;28;20955;-47
2024/03/20 13:24:44;;;;;;;29.63;10.80;;;21.10;99.90;;;;;;10461024;28;20052;-53
2024/03/20 13:29:51;;;;;;;23.30;8.93;;;21.30;99.90;;;;;;10457306;28;20052;-50
2024/03/20 13:35:01;;;;;;;26.95;10.82;;;21.50;99.90;;;;;;10458374;28;20914;-56
2024/03/20 13:40:16;;;;;;;22.67;10.60;;;21.40;99.90;;;;;;10454920;28;20052;-52
2024/03/20 13:45:19;;;;;;;22.50;9.27;;;21.80;99.90;;;;;;10458706;28;20056;-54
2024/03/20 13:50:21;;;;;;;28.48;10.23;;;22.50;99.90;;;;;;10453814;28;20539;-51
2024/03/20 13:55:23;;;;;;;20.20;10.10;;;22.60;99.90;;;;;;10459557;28;20142;-53
2024/03/20 14:00:27;;;;;;;29.85;9.30;;;23.00;99.90;;;;;;10457558;28;20096;-54
2024/03/20 14:05:29;;;;;;;18.98;9.20;;;23.00;99.90;;;;;;10459177;28;20044;-55
2024/03/20 14:10:31;;;;;;;23.48;10.52;;;23.20;99.90;;;;;;10459611;28;20079;-54
2024/03/20 14:15:35;;;;;;;18.45;9.38;;;23.10;99.90;;;;;;10457291;28;20460;-54
2024/03/20 14:20:37;;;;;;;17.52;8.35;;;23.60;99.90;;;;;;10453033;28;20068;-51
2024/03/20 14:25:40;;;;;;;25.33;11.25;;;23.60;99.90;;;;;;10432033;28;20933;-51
2024/03/20 14:30:43;;;;;;;;;;;23.70;99.90;;;;;;10429380;28;20071;-54
2024/03/20 14:35:45;;;;;;;19.10;9.68;;;23.70;99.90;;;;;;10425012;28;19921;-52
2024/03/20 14:40:47;;;;;;;19.05;9.90;;;24.10;98.00;;;;;;10426215;28;20503;-51
2024/03/20 14:45:51;;;;;;;17.67;9.68;;;23.80;99.90;;;;;;10425879;28;20416;-50
2024/03/20 14:50:53;;;;;;;16.45;8.25;;;23.50;99.90;;;;;;10418039;28;22531;-53
2024/03/20 14:55:55;;;;;;;18.17;8.75;;;23.70;99.90;;;;;;10428339;28;20040;-56
2024/03/20 15:00:59;;;;;;;15.07;7.10;;;23.10;99.90;;;;;;10423505;28;20575;-55
2024/03/20 15:06:02;;;;;;;17.73;8.48;;;23.90;99.90;;;;;;10421120;28;20052;-57
2024/03/20 15:11:04;;;;;;;12.45;7.45;;;24.30;99.90;;;;;;10422192;28;20056;-59
2024/03/20 15:16:13;;;;;;;10.55;5.22;;;24.30;99.90;;;;;;10420801;28;20087;-59
2024/03/20 15:21:17;;;;;;;10.82;6.75;;;24.50;99.90;;;;;;10416290;28;20067;-60
2024/03/20 15:26:20;;;;;;;15.65;7.10;;;24.70;99.90;;;;;;10421010;28;20049;-59
2024/03/20 15:31:24;;;;;;;15.85;7.32;;;24.70;99.90;;;;;;10417433;28;20054;-60
2024/03/20 15:36:26;;;;;;;17.60;8.13;;;24.80;99.90;;;;;;10419766;28;20052;-60
2024/03/20 15:41:28;;;;;;;;;;;24.70;99.90;;;;;;10424553;28;20175;-59
2024/03/20 15:46:33;;;;;;;12.25;6.13;;;24.80;99.90;;;;;;10427037;28;19921;-59
2024/03/20 15:51:35;;;;;;;30.55;7.97;;;24.80;99.90;;;;;;10418952;28;20049;-59
2024/03/20 15:56:37;;;;;;;15.88;7.07;;;24.90;99.90;;;;;;10429773;28;20052;-59
2024/03/20 16:01:41;;;;;;;11.25;6.10;;;25.00;99.90;;;;;;10428448;28;20048;-60
2024/03/20 16:06:44;;;;;;;16.25;5.65;;;25.00;99.90;;;;;;10421721;28;20644;-59
2024/03/20 16:11:50;;;;;;;14.02;5.18;;;25.10;99.90;;;;;;10422996;28;20171;-59
2024/03/20 16:16:54;;;;;;;9.20;5.90;;;25.30;99.90;;;;;;10422018;28;20092;-60
2024/03/20 16:21:56;;;;;;;16.65;5.57;;;25.40;99.90;;;;;;10419712;28;20048;-59
2024/03/20 16:26:58;;;;;;;14.25;6.78;;;25.40;99.90;;;;;;10415644;28;20053;-59
2024/03/20 16:32:01;;;;;;;;;;;25.30;95.50;;;;;;10419837;28;20048;-59
2024/03/20 16:37:04;;;;;;;16.10;4.90;;;25.40;99.90;;;;;;10418392;28;19925;-58
2024/03/20 16:42:08;;;;;;;13.48;5.47;;;25.30;99.90;;;;;;10424065;28;20048;-59
2024/03/20 16:47:11;;;;;;;11.90;5.70;;;25.20;99.90;;;;;;10425590;28;20063;-60
2024/03/20 16:52:13;;;;;;;14.63;6.28;;;25.20;99.90;;;;;;10422621;28;20120;-59
2024/03/20 16:57:15;;;;;;;12.23;6.38;;;25.30;99.90;;;;;;10422645;28;20087;-59
2024/03/20 17:02:20;;;;;;;12.35;5.43;;;25.20;99.90;;;;;;10419390;28;20044;-58
2024/03/20 17:07:22;;;;;;;12.10;5.10;;;25.10;99.90;;;;;;10418145;28;20111;-60
2024/03/20 17:12:24;;;;;;;18.35;7.40;;;25.00;99.90;;;;;;10421235;28;20088;-60
2024/03/20 17:17:27;;;;;;;18.33;7.20;;;24.90;99.90;;;;;;10420719;28;20136;-58
2024/03/20 17:22:32;;;;;;;9.43;4.32;;;24.70;99.90;;;;;;10411528;28;20045;-59
2024/03/20 17:27:34;;;;;;;13.05;4.57;;;24.60;99.90;;;;;;10418003;28;20650;-60
2024/03/20 17:32:37;;;;;;;11.77;5.03;;;24.30;99.90;;;;;;10420934;28;20052;-59
2024/03/20 17:37:39;;;;;;;12.57;4.57;;;24.30;99.90;;;;;;10417155;28;20420;-59
2024/03/20 17:42:42;;;;;;;14.30;5.40;;;24.20;99.90;;;;;;10418409;28;20053;-59
2024/03/20 17:47:46;;;;;;;18.30;5.20;;;24.00;99.90;;;;;;10413656;28;20182;-59
2024/03/20 17:52:48;;;;;;;12.43;4.15;;;24.00;99.90;;;;;;10412324;28;20140;-61
2024/03/20 17:57:51;;;;;;;12.05;3.75;;;23.90;99.90;;;;;;10414276;28;20052;-59
2024/03/20 18:02:54;;;;;;;16.83;4.47;;;23.80;99.90;;;;;;10419807;28;20068;-58
2024/03/20 18:07:56;;;;;;;10.05;3.20;;;23.70;99.90;;;;;;10421751;28;20044;-59
2024/03/20 18:12:59;;;;;;;7.93;3.80;;;23.50;99.90;;;;;;10426926;28;20053;-59
2024/03/20 18:18:02;;;;;;;10.90;3.03;;;23.40;99.90;;;;;;10427916;28;20056;-59
2024/03/20 18:23:04;;;;;;;9.57;2.83;;;23.30;99.90;;;;;;10432578;28;20725;-58
2024/03/20 18:28:07;;;;;;;8.95;3.05;;;23.20;99.90;;;;;;10429549;28;20049;-59
2024/03/20 18:33:10;;;;;;;6.05;2.45;;;23.10;99.90;;;;;;10427470;28;20091;-59
2024/03/20 18:38:13;;;;;;;8.88;2.97;;;22.90;99.90;;;;;;10427155;28;20890;-59
2024/03/20 18:43:15;;;;;;;9.38;4.05;;;22.80;99.90;;;;;;10428537;28;20056;-52
2024/03/20 18:48:19;;;;;;;12.77;4.35;;;22.50;99.90;;;;;;10424106;28;20047;-51
2024/03/20 18:53:21;;;;;;;11.95;5.38;;;21.60;99.90;;;;;;10426611;28;20055;-53
2024/03/20 18:58:23;;;;;;;9.68;5.57;;;20.90;99.90;;;;;;10422361;28;20159;-52
2024/03/20 19:03:27;;;;;;;8.05;5.45;;;20.70;99.90;;;;;;10425506;28;20047;-51
2024/03/20 19:08:29;;;;;;;7.95;4.75;;;20.30;99.90;;;;;;10430889;28;20048;-54
2024/03/20 19:13:32;;;;;;;11.07;5.35;;;19.90;99.90;;;;;;10430875;28;21485;-50
2024/03/20 19:18:36;;;;;;;12.57;5.90;;;20.10;99.90;;;;;;10422118;28;20113;-52
2024/03/20 19:23:37;;;;;;;12.55;6.57;;;20.10;99.90;;;;;;10429195;28;20209;-53
2024/03/20 19:28:39;;;;;;;21.15;10.75;;;19.80;99.90;;;;;;10423316;28;20076;-55
2024/03/20 19:33:43;;;;;;;15.80;5.90;;;19.50;99.90;;;;;;10424391;28;20078;-51
2024/03/20 19:38:45;;;;;;;11.70;6.35;;;20.60;99.90;;;;;;10423820;28;20045;-52
2024/03/20 19:43:47;;;;;;;9.15;5.78;;;21.10;99.90;;;;;;10431845;28;20405;-50
2024/03/20 19:48:51;;;;;;;14.85;7.85;;;21.20;99.90;;;;;;10425385;28;20052;-53
2024/03/20 19:53:53;;;;;;;15.13;7.13;;;21.10;99.90;;;;;;10427182;28;20199;-52
2024/03/20 19:58:55;;;;;;;12.23;7.18;;;21.10;99.90;;;;;;10432070;28;20075;-50
2024/03/20 20:03:58;;;;;;;18.10;8.05;;;21.00;99.90;;;;;;10428038;28;20041;-53
2024/03/20 20:09:00;;;;;;;13.73;6.38;;;21.00;99.90;;;;;;10428345;28;20590;-53
2024/03/20 20:14:02;;;;;;;22.15;7.45;;;20.90;99.90;;;;;;10418382;28;20092;-55
2024/03/20 20:19:06;;;;;;;13.23;7.00;;;20.80;99.90;;;;;;10416282;28;20057;-54
2024/03/20 20:24:09;;;;;;;12.82;7.93;;;20.70;99.90;;;;;;10417534;28;20840;-51
2024/03/20 20:29:10;;;;;;;17.42;8.80;;;20.60;99.90;;;;;;10418804;28;21524;-51
2024/03/20 20:34:14;;;;;;;17.65;7.80;;;20.50;99.90;;;;;;10421769;28;20563;-54
2024/03/20 20:39:18;;;;;;;16.00;7.88;;;20.40;99.90;;;;;;10420686;28;20049;-56
2024/03/20 20:44:21;;;;;;;18.85;8.80;;;20.40;99.90;;;;;;10418560;28;20056;-52
2024/03/20 20:49:24;;;;;;;;;;;20.30;99.90;;;;;;10420466;28;20171;-56
2024/03/20 20:54:26;;;;;;;15.13;8.27;;;20.20;99.90;;;;;;10424813;28;20634;-55
2024/03/20 20:59:28;;;;;;;;;;;20.20;99.90;;;;;;10417271;28;20091;-54
2024/03/20 21:20:31;;;;;;;10.88;6.72;;;20.00;99.90;;;;;;10412709;28;20049;-52
2024/03/20 21:25:33;;;;;;;12.10;4.80;;;20.00;99.90;;;;;;10421597;28;20041;-52
2024/03/20 21:30:35;;;;;;;15.90;7.22;;;19.90;99.90;;;;;;10423997;28;20147;-54
2024/03/20 21:35:39;;;;;;;7.70;4.68;;;19.90;99.90;;;;;;10427356;28;20068;-54
2024/03/20 21:40:41;;;;;;;11.38;5.80;;;19.90;99.90;;;;;;10433641;28;20492;-55
2024/03/20 21:45:43;;;;;;;13.40;5.30;;;19.80;99.90;;;;;;10434964;28;20144;-53
2024/03/20 21:50:49;;;;;;;22.15;10.77;;;19.90;99.90;;;;;;10432294;28;20079;-54
2024/03/20 21:55:53;;;;;;;16.25;6.57;;;19.60;99.90;;;;;;10431507;28;20080;-53
2024/03/20 22:00:58;;;;;;;30.75;14.32;;;19.70;99.90;;;;;;10429345;28;20082;-52
2024/03/20 22:06:02;;;;;;;10.32;6.00;;;19.60;99.90;;;;;;10426776;28;20250;-52
2024/03/20 22:11:04;;;;;;;9.55;4.63;;;19.60;99.90;;;;;;10434695;28;20065;-53
2024/03/20 22:16:06;;;;;;;21.30;11.75;;;19.50;99.90;;;;;;10427312;28;20110;-53
2024/03/20 22:21:12;;;;;;;23.75;12.93;;;19.40;99.90;;;;;;10435321;28;20076;-52
2024/03/20 22:26:14;;;;;;;7.60;4.47;;;19.40;99.90;;;;;;10438198;28;20354;-55
2024/03/20 22:31:17;;;;;;;;;;;19.40;99.90;;;;;;10436697;28;20048;-51
2024/03/20 22:36:21;;;;;;;19.83;10.70;;;19.30;99.90;;;;;;10438694;28;19928;-54
2024/03/20 22:41:23;;;;;;;13.50;6.57;;;19.30;99.90;;;;;;10435471;28;20844;-50
2024/03/20 22:46:25;;;;;;;12.50;6.70;;;19.20;99.90;;;;;;10440079;28;20040;-54
2024/03/20 22:51:28;;;;;;;;;;;19.20;99.90;;;;;;10427657;28;20076;-52
2024/03/20 22:56:31;;;;;;;9.70;4.80;;;19.10;99.90;;;;;;10419823;28;20031;-51
2024/03/20 23:01:32;;;;;;;22.75;11.93;;;19.10;99.90;;;;;;10433835;28;20047;-53
2024/03/20 23:06:36;;;;;;;19.10;9.27;;;19.00;99.90;;;;;;10434519;28;20114;-51
2024/03/20 23:11:38;;;;;;;29.42;14.90;;;19.00;99.90;;;;;;10435366;28;20122;-52
2024/03/20 23:16:39;;;;;;;22.80;11.63;;;18.90;99.90;;;;;;10440436;28;20061;-50
2024/03/20 23:21:43;;;;;;;26.77;13.73;;;18.80;99.90;;;;;;10431971;28;20082;-52
2024/03/20 23:26:47;;;;;;;22.55;13.25;;;18.70;99.90;;;;;;10431709;28;20148;-50
2024/03/20 23:31:49;;;;;;;27.80;15.02;;;18.50;99.90;;;;;;10429501;28;20055;-51
2024/03/20 23:36:52;;;;;;;24.85;13.93;;;18.30;99.90;;;;;;10433940;28;20046;-54
2024/03/20 23:41:54;;;;;;;23.63;11.43;;;18.00;99.90;;;;;;10425496;28;20057;-53
2024/03/20 23:46:56;;;;;;;19.95;11.05;;;18.10;99.90;;;;;;10434295;28;20055;-53
2024/03/20 23:52:00;;;;;;;13.07;8.10;;;18.30;99.90;;;;;;10432809;28;20816;-53
2024/03/20 23:57:02;;;;;;;22.83;12.23;;;18.40;99.90;;;;;;10426675;28;20148;-51
